EGPF/GLA METAR and TAF weather

Enter ICAO airport designator
Station Type Date Time Source
EGPF METAR 2019/08/22 02:50 UTC NOAA

EGPF 220250Z AUTO 22006KT 9999 FEW014 11/11 Q1014


Station Type Date Time Source
EGPF Decoded METAR 2019/08/22 02:50 UTC NOAA

Station name not available
Aug 21, 2019 - 10:50 PM EDT / 2019.08.22 0250 UTC
Wind: from the SW (220 degrees) at 7 MPH (6 KT):0
Visibility: greater than 7 mile(s):0
Sky conditions: mostly clear
Temperature: 51 F (11 C)
Dew Point: 51 F (11 C)
Relative Humidity: 100%
Pressure (altimeter): 29.94 in. Hg (1014 hPa)
ob: EGPF 220250Z AUTO 22006KT 9999 FEW014 11/11 Q1014
cycle: 3

Station Type Date Time Source
EGPF TAF 2019/08/22 02:53 UTC NOAA

TAF
AMD EGPF 220248Z 2202/2224 21012KT 9999 FEW014 SCT020 PROB30
TEMPO 2202/2205 8000
TEMPO 2210/2221 8000 -RADZ BKN012 PROB30
TEMPO 2211/2221 23020G30KT 4000 RADZ BKN008 PROB30
TEMPO 2221/2224 22015G25KT 8000 -RA BKN010

Example: see airport list